Time;durP1;ratioP1;P1;durP2;ratioP2;P2;SDS_P1;SDS_P2;PMS_P1;PMS_P2;Temp;Humidity;BMP_temperature;BMP_pressure;BME280_temperature;BME280_humidity;BME280_pressure;Samples;Min_cycle;Max_cycle;Signal;HPM_P1;HPM_P2
2023/07/27 00:00:15;;;;;;;13.77;5.93;;;;;;;15.65;85.53;100903.44;5085752;28;20035;-70
2023/07/27 00:02:41;;;;;;;11.27;5.90;;;;;;;15.62;85.43;100905.56;5101497;28;20050;-70
2023/07/27 00:05:07;;;;;;;8.73;6.15;;;;;;;15.61;86.20;100901.94;5114327;27;20032;-70
2023/07/27 00:07:32;;;;;;;7.13;5.47;;;;;;;15.61;87.26;100901.09;5090242;28;20213;-70
2023/07/27 00:09:58;;;;;;;12.50;6.15;;;;;;;15.55;88.27;100900.66;5088404;28;20059;-70
2023/07/27 00:12:23;;;;;;;10.60;5.72;;;;;;;15.54;87.54;100900.81;5090250;28;20118;-70
2023/07/27 00:14:49;;;;;;;8.73;5.82;;;;;;;15.53;87.62;100896.34;5090534;28;20028;-71
2023/07/27 00:17:15;;;;;;;8.65;6.25;;;;;;;15.51;87.63;100895.59;5088402;28;20175;-73
2023/07/27 00:19:40;;;;;;;7.78;5.75;;;;;;;15.53;88.26;100894.44;5089415;28;20047;-70
2023/07/27 00:22:06;;;;;;;12.70;6.50;;;;;;;15.52;88.84;100889.09;5089161;28;20046;-71
2023/07/27 00:24:31;;;;;;;11.45;5.85;;;;;;;15.52;88.01;100881.72;5089488;28;20408;-70
2023/07/27 00:26:57;;;;;;;7.25;5.53;;;;;;;15.52;88.13;100881.72;5108202;28;20456;-71
2023/07/27 00:29:22;;;;;;;10.52;5.97;;;;;;;15.54;87.89;100882.47;5092167;28;20377;-71
2023/07/27 00:31:48;;;;;;;9.70;5.90;;;;;;;15.56;88.04;100879.56;5110045;28;20605;-71
2023/07/27 00:34:14;;;;;;;10.80;6.20;;;;;;;15.55;88.69;100881.44;5105229;27;20036;-71
2023/07/27 00:36:39;;;;;;;11.45;5.82;;;;;;;15.54;89.12;100874.25;5088884;28;20503;-71
2023/07/27 00:39:04;;;;;;;10.20;5.97;;;;;;;15.54;88.62;100876.97;5090050;28;20361;-71
2023/07/27 00:41:30;;;;;;;7.95;5.88;;;;;;;15.54;88.88;100876.13;5089358;28;20400;-71
2023/07/27 00:43:56;;;;;;;7.90;5.57;;;;;;;15.54;88.83;100870.63;5071589;28;20035;-71
2023/07/27 00:46:22;;;;;;;8.40;6.35;;;;;;;15.54;89.73;100866.00;5095878;28;20035;-71
2023/07/27 00:48:48;;;;;;;10.52;6.15;;;;;;;15.51;90.38;100869.03;5109043;28;20038;-71
2023/07/27 00:51:13;;;;;;;8.48;5.72;;;;;;;15.48;89.03;100860.22;5094822;28;20036;-71
2023/07/27 00:53:40;;;;;;;11.10;6.07;;;;;;;15.46;89.70;100854.88;5087412;28;20028;-71
2023/07/27 00:56:08;;;;;;;10.75;6.72;;;;;;;15.41;90.70;100845.34;5087265;28;20111;-70
2023/07/27 00:58:35;;;;;;;10.73;6.60;;;;;;;15.37;89.93;100847.50;5099339;28;20511;-71
2023/07/27 01:01:02;;;;;;;12.32;6.63;;;;;;;15.33;89.55;100846.06;5109527;28;20470;-71
2023/07/27 01:03:28;;;;;;;9.65;5.70;;;;;;;15.28;90.68;100832.78;5110134;28;20052;-72
2023/07/27 01:05:54;;;;;;;8.07;5.60;;;;;;;15.27;91.20;100831.06;5098685;28;20074;-71
2023/07/27 01:08:19;;;;;;;7.20;5.53;;;;;;;15.27;90.78;100825.56;5087792;28;20450;-71
2023/07/27 01:10:57;;;;;;;10.77;6.25;;;;;;;15.24;91.40;100814.03;5105136;28;20055;-71
2023/07/27 01:13:30;;;;;;;10.80;6.63;;;;;;;15.23;91.21;100817.78;5097329;28;20046;-71
2023/07/27 01:16:00;;;;;;;9.73;6.32;;;;;;;15.19;92.19;100810.84;5089368;28;20134;-71
2023/07/27 01:18:34;;;;;;;9.60;6.43;;;;;;;15.20;90.92;100810.72;5087986;28;20047;-71
2023/07/27 01:21:38;;;;;;;8.95;6.57;;;;;;;15.23;90.59;100807.69;5070248;28;20588;-71
2023/07/27 01:24:18;;;;;;;9.52;5.82;;;;;;;15.20;91.90;100801.59;4990970;28;20045;-71
2023/07/27 01:26:52;;;;;;;11.27;6.55;;;;;;;15.21;90.82;100795.13;5078121;28;20052;-71
2023/07/27 01:29:48;;;;;;;10.02;6.70;;;;;;;15.22;90.74;100805.94;5089336;28;20047;-71
2023/07/27 01:32:17;;;;;;;8.75;5.43;;;;;;;15.20;91.39;100797.03;5089001;28;20044;-71
2023/07/27 01:34:46;;;;;;;9.07;6.25;;;;;;;15.19;91.58;100789.78;5088001;28;20392;-71
2023/07/27 01:37:15;;;;;;;10.70;6.90;;;;;;;15.16;92.80;100791.97;5087847;28;20024;-71
2023/07/27 01:39:43;;;;;;;13.85;6.90;;;;;;;15.12;93.48;100785.88;5089037;28;20397;-71
2023/07/27 01:42:13;;;;;;;10.27;6.25;;;;;;;15.07;93.50;100781.84;5088586;28;20114;-71
2023/07/27 01:44:39;;;;;;;11.30;6.82;;;;;;;15.04;93.39;100775.63;5088945;28;20030;-72
2023/07/27 01:47:07;;;;;;;10.07;6.70;;;;;;;15.02;92.93;100777.66;5087586;28;20031;-72
2023/07/27 01:49:34;;;;;;;12.07;5.88;;;;;;;15.03;91.97;100781.25;5087691;28;20644;-72
2023/07/27 01:52:01;;;;;;;11.07;6.45;;;;;;;15.05;93.06;100773.75;5086055;28;20035;-71
2023/07/27 01:54:27;;;;;;;13.38;6.82;;;;;;;14.99;93.51;100766.97;5092014;28;20117;-70
2023/07/27 01:56:55;;;;;;;10.55;6.20;;;;;;;15.00;92.54;100763.22;5103375;28;20584;-71
2023/07/27 01:59:21;;;;;;;11.15;6.65;;;;;;;14.96;93.86;100763.63;5087316;28;20024;-70
2023/07/27 02:01:48;;;;;;;9.88;6.25;;;;;;;14.93;93.95;100750.25;5087154;28;20453;-70
2023/07/27 02:04:14;;;;;;;9.93;6.85;;;;;;;14.93;94.77;100745.63;5088509;28;20500;-71
2023/07/27 02:06:40;;;;;;;11.32;7.45;;;;;;;14.93;94.41;100740.16;5085962;28;20043;-71
2023/07/27 02:09:05;;;;;;;13.10;7.10;;;;;;;14.91;95.61;100728.44;5090579;28;20061;-71
2023/07/27 02:11:31;;;;;;;8.68;6.30;;;;;;;14.90;94.77;100729.47;5108482;28;20036;-71
2023/07/27 02:14:15;;;;;;;10.85;6.95;;;;;;;14.90;95.90;100724.00;5108644;28;20509;-71
2023/07/27 02:16:49;;;;;;;9.93;5.88;;;;;;;14.91;96.22;100722.97;5103140;28;20044;-70
2023/07/27 02:19:17;;;;;;;11.13;7.18;;;;;;;14.88;96.54;100706.84;5086913;28;20489;-70
2023/07/27 02:21:46;;;;;;;9.45;6.38;;;;;;;14.87;95.96;100701.50;5085215;28;20032;-70
2023/07/27 02:24:13;;;;;;;12.73;6.82;;;;;;;14.85;97.02;100707.13;5087470;28;20755;-71
2023/07/27 02:26:38;;;;;;;10.20;7.18;;;;;;;14.83;97.12;100697.31;5086348;28;20035;-70
2023/07/27 02:29:04;;;;;;;9.90;6.38;;;;;;;14.83;96.49;100697.31;5088469;28;20052;-70
2023/07/27 02:31:29;;;;;;;13.57;6.97;;;;;;;14.80;97.26;100691.09;5086037;28;20028;-70
2023/07/27 02:33:54;;;;;;;15.00;7.88;;;;;;;14.79;97.09;100686.66;5086662;28;20039;-71
2023/07/27 02:36:20;;;;;;;10.15;7.25;;;;;;;14.80;96.62;100685.63;5096813;28;20035;-71
2023/07/27 02:38:45;;;;;;;9.27;6.93;;;;;;;14.80;96.44;100679.28;5089610;28;20571;-71
2023/07/27 02:41:11;;;;;;;12.45;7.55;;;;;;;14.80;97.18;100671.06;5092861;28;20154;-72
2023/07/27 02:43:38;;;;;;;11.35;7.18;;;;;;;14.78;97.53;100664.84;5086386;28;20039;-71
2023/07/27 02:46:05;;;;;;;14.18;7.28;;;;;;;14.77;97.24;100663.13;5086596;28;20036;-71
2023/07/27 02:48:30;;;;;;;9.80;7.00;;;;;;;14.77;98.18;100660.41;5086574;28;20568;-72
2023/07/27 02:50:56;;;;;;;13.05;7.50;;;;;;;14.75;97.80;100662.44;5085261;28;20118;-71
2023/07/27 02:53:21;;;;;;;11.15;6.63;;;;;;;14.77;97.47;100665.88;5085653;28;20500;-71
2023/07/27 02:55:58;;;;;;;10.82;6.88;;;;;;;14.78;96.83;100668.50;5086024;28;20034;-71
2023/07/27 02:58:23;;;;;;;13.27;7.38;;;;;;;14.77;98.18;100653.03;5086143;28;20032;-71
2023/07/27 03:00:51;;;;;;;11.68;6.90;;;;;;;14.72;98.38;100651.75;5087290;28;20016;-71
2023/07/27 03:03:16;;;;;;;11.10;7.10;;;;;;;14.69;98.17;100646.56;5086421;28;20385;-71
2023/07/27 03:05:42;;;;;;;11.10;7.05;;;;;;;14.70;98.28;100646.44;5069022;28;20023;-70
2023/07/27 03:08:07;;;;;;;12.18;7.07;;;;;;;14.71;98.80;100650.88;5085480;28;20077;-71
2023/07/27 03:10:36;;;;;;;10.10;7.00;;;;;;;14.70;98.95;100642.81;5100495;28;20069;-71
2023/07/27 03:13:02;;;;;;;13.57;7.53;;;;;;;14.68;99.08;100637.47;5099437;28;20031;-71
2023/07/27 03:15:27;;;;;;;10.80;7.53;;;;;;;14.67;99.47;100626.66;5087455;28;20119;-71
2023/07/27 03:17:52;;;;;;;13.02;7.10;;;;;;;14.66;99.17;100619.47;5085896;28;20431;-71
2023/07/27 03:20:18;;;;;;;14.10;6.88;;;;;;;14.64;99.53;100618.72;5085250;28;20123;-71
2023/07/27 03:22:43;;;;;;;14.57;7.70;;;;;;;14.62;100.00;100604.34;5084700;28;20048;-71
2023/07/27 03:25:09;;;;;;;10.57;6.55;;;;;;;14.56;100.00;100600.31;5085616;28;20036;-71
2023/07/27 03:27:35;;;;;;;12.60;6.88;;;;;;;14.54;100.00;100596.81;5086497;28;20040;-71
2023/07/27 03:30:01;;;;;;;9.60;6.75;;;;;;;14.54;100.00;100585.88;5085418;28;20120;-71
2023/07/27 03:32:26;;;;;;;10.88;6.85;;;;;;;14.57;100.00;100573.78;5085474;28;20043;-71
2023/07/27 03:34:51;;;;;;;11.80;6.53;;;;;;;14.58;100.00;100561.81;5087474;28;20028;-71
2023/07/27 03:37:17;;;;;;;10.57;6.78;;;;;;;14.58;100.00;100553.59;5089062;28;20122;-71
2023/07/27 03:39:42;;;;;;;9.48;6.30;;;;;;;14.54;100.00;100547.53;5090242;28;20019;-71
2023/07/27 03:42:07;;;;;;;10.73;6.35;;;;;;;14.54;100.00;100545.66;5090803;28;20111;-71
2023/07/27 03:44:33;;;;;;;11.73;6.80;;;;;;;14.57;100.00;100543.66;5090659;28;20035;-71
2023/07/27 03:46:59;;;;;;;11.43;6.85;;;;;;;14.58;100.00;100545.38;5100838;28;20364;-71
2023/07/27 03:49:24;;;;;;;11.27;6.47;;;;;;;14.59;100.00;100539.75;5111813;28;20049;-71
2023/07/27 03:51:50;;;;;;;11.00;6.63;;;;;;;14.60;100.00;100530.56;5092234;28;20446;-71
2023/07/27 03:54:15;;;;;;;9.55;5.47;;;;;;;14.59;100.00;100534.28;5091409;28;20437;-71
2023/07/27 03:56:40;;;;;;;9.07;5.97;;;;;;;14.61;100.00;100532.28;5089076;28;20028;-71
2023/07/27 03:59:06;;;;;;;11.57;6.30;;;;;;;14.61;100.00;100529.53;5090352;28;20101;-71
2023/07/27 04:01:31;;;;;;;12.20;6.22;;;;;;;14.60;100.00;100521.50;5089495;28;20392;-71
2023/07/27 04:03:56;;;;;;;10.60;6.28;;;;;;;14.57;100.00;100519.88;5094968;28;20564;-71
2023/07/27 04:06:22;;;;;;;9.90;5.70;;;;;;;14.58;100.00;100524.34;5096576;28;20036;-71
2023/07/27 04:08:48;;;;;;;10.73;5.65;;;;;;;14.58;100.00;100521.63;5089154;28;20024;-71
2023/07/27 04:11:13;;;;;;;13.00;6.18;;;;;;;14.61;100.00;100523.22;5100688;28;20024;-72
2023/07/27 04:13:38;;;;;;;9.30;5.47;;;;;;;14.59;100.00;100517.84;5090876;28;20040;-70
2023/07/27 04:16:05;;;;;;;9.20;5.68;;;;;;;14.60;100.00;100519.63;5072988;28;20031;-71
2023/07/27 04:18:30;;;;;;;9.73;5.70;;;;;;;14.59;100.00;100515.13;5089301;28;20032;-71
2023/07/27 04:20:56;;;;;;;7.72;4.78;;;;;;;14.59;100.00;100509.66;5092478;28;20032;-71
2023/07/27 04:23:21;;;;;;;9.70;5.20;;;;;;;14.61;100.00;100501.31;5089017;28;20396;-71
2023/07/27 04:25:46;;;;;;;8.40;5.20;;;;;;;14.58;100.00;100494.22;5090048;28;20036;-71
2023/07/27 04:28:12;;;;;;;7.88;4.85;;;;;;;14.58;100.00;100494.22;5089393;28;20743;-70
2023/07/27 04:30:37;;;;;;;7.78;4.47;;;;;;;14.58;100.00;100490.63;5072389;28;20071;-69
2023/07/27 04:33:02;;;;;;;7.93;4.93;;;;;;;14.57;100.00;100481.56;5089371;28;20043;-71
2023/07/27 04:35:28;;;;;;;5.60;4.38;;;;;;;14.59;100.00;100479.53;5090561;28;20080;-70
2023/07/27 04:37:53;;;;;;;6.38;4.40;;;;;;;14.60;100.00;100477.69;5089339;28;20039;-71
2023/07/27 04:40:19;;;;;;;6.85;5.28;;;;;;;14.58;100.00;100475.06;5088606;28;20027;-71
2023/07/27 04:42:45;;;;;;;8.25;4.18;;;;;;;14.59;100.00;100464.97;5088568;28;20056;-70
2023/07/27 04:45:10;;;;;;;6.80;4.30;;;;;;;14.58;100.00;100466.00;5089459;28;20077;-71
2023/07/27 04:47:35;;;;;;;7.05;4.00;;;;;;;14.59;100.00;100454.88;5087925;28;20218;-70
2023/07/27 04:50:02;;;;;;;6.47;4.00;;;;;;;14.60;100.00;100458.53;5089658;28;20028;-70
2023/07/27 04:52:28;;;;;;;8.23;4.22;;;;;;;14.62;100.00;100457.34;5088963;28;20060;-70
2023/07/27 04:54:53;;;;;;;5.88;4.05;;;;;;;14.62;100.00;100459.22;5089830;28;20394;-71
2023/07/27 04:57:18;;;;;;;6.05;3.97;;;;;;;14.62;100.00;100451.88;5095093;28;20011;-71
2023/07/27 04:59:44;;;;;;;5.38;4.40;;;;;;;14.63;100.00;100455.47;5108896;28;20063;-70
2023/07/27 05:02:09;;;;;;;4.88;3.95;;;;;;;14.62;100.00;100448.28;5109875;28;20048;-71
2023/07/27 05:04:34;;;;;;;7.57;4.25;;;;;;;14.63;100.00;100453.59;5092624;28;20119;-71
2023/07/27 05:07:00;;;;;;;6.00;4.05;;;;;;;14.62;100.00;100451.88;5088126;28;20528;-71
2023/07/27 05:09:25;;;;;;;7.57;3.95;;;;;;;14.65;100.00;100445.25;5100736;27;20418;-70
2023/07/27 05:11:50;;;;;;;8.00;4.10;;;;;;;14.68;100.00;100431.25;5088409;28;20145;-70
2023/07/27 05:14:16;;;;;;;5.15;3.95;;;;;;;14.67;100.00;100435.00;5085981;28;20505;-70
2023/07/27 05:16:41;;;;;;;6.18;4.85;;;;;;;14.68;100.00;100426.63;5104567;28;20044;-70
2023/07/27 05:19:06;;;;;;;5.97;4.35;;;;;;;14.68;100.00;100421.16;5089353;28;20032;-70
2023/07/27 05:21:32;;;;;;;6.57;4.82;;;;;;;14.69;100.00;100419.31;5093267;28;20024;-70
2023/07/27 05:23:57;;;;;;;8.48;4.47;;;;;;;14.69;100.00;100411.94;5088599;28;20039;-70
2023/07/27 05:26:22;;;;;;;5.85;3.78;;;;;;;14.72;100.00;100416.25;5108163;28;20027;-70
2023/07/27 05:28:48;;;;;;;5.95;3.70;;;;;;;14.70;100.00;100413.66;5095104;28;20032;-70
2023/07/27 05:31:13;;;;;;;5.50;4.10;;;;;;;14.74;100.00;100406.88;5089036;28;20032;-70
2023/07/27 05:33:39;;;;;;;4.07;3.65;;;;;;;14.77;100.00;100406.56;5096495;28;20031;-70
2023/07/27 05:36:04;;;;;;;4.82;3.75;;;;;;;14.80;100.00;100410.91;5099951;28;20047;-70
2023/07/27 05:38:29;;;;;;;5.65;3.53;;;;;;;14.82;100.00;100406.13;5088462;28;20044;-70
2023/07/27 05:41:00;;;;;;;4.90;3.65;;;;;;;14.85;100.00;100408.56;5095405;27;20491;-70
2023/07/27 05:43:25;;;;;;;8.73;4.13;;;;;;;14.89;100.00;100410.00;5129966;27;20411;-70
2023/07/27 05:45:50;;;;;;;5.55;4.50;;;;;;;14.89;100.00;100399.06;5129772;27;20023;-70
2023/07/27 05:48:16;;;;;;;4.75;3.65;;;;;;;14.90;100.00;100398.03;5100655;27;20047;-70
2023/07/27 05:50:42;;;;;;;5.47;3.63;;;;;;;14.93;100.00;100402.34;5088403;28;20036;-69
2023/07/27 05:53:07;;;;;;;3.58;2.92;;;;;;;14.95;100.00;100394.84;5087479;28;20507;-70
2023/07/27 05:55:32;;;;;;;4.05;3.45;;;;;;;14.99;100.00;100393.53;5087475;28;20032;-69
2023/07/27 05:57:58;;;;;;;4.63;3.60;;;;;;;15.01;100.00;100391.50;5088705;28;20039;-70
2023/07/27 06:00:23;;;;;;;6.60;3.60;;;;;;;15.05;100.00;100387.44;5087785;28;20105;-70
2023/07/27 06:02:53;;;;;;;4.05;3.40;;;;;;;15.05;100.00;100382.81;5088803;28;20413;-70
2023/07/27 06:05:18;;;;;;;4.63;3.40;;;;;;;15.09;100.00;100386.13;5088349;28;20040;-69
2023/07/27 06:07:44;;;;;;;6.95;3.67;;;;;;;15.11;100.00;100384.13;5087649;28;20503;-70
2023/07/27 06:10:09;;;;;;;3.60;3.13;;;;;;;15.15;100.00;100385.50;5096955;28;20027;-70
2023/07/27 06:12:35;;;;;;;3.55;2.50;;;;;;;15.18;100.00;100381.63;5089075;28;20443;-70
2023/07/27 06:15:00;;;;;;;4.13;2.95;;;;;;;15.23;100.00;100376.53;5088489;28;20016;-70
2023/07/27 06:17:27;;;;;;;2.97;2.67;;;;;;;15.27;100.00;100386.19;5097624;28;20039;-70
2023/07/27 06:19:53;;;;;;;2.83;2.45;;;;;;;15.28;100.00;100375.06;5108829;28;20066;-70
2023/07/27 06:22:18;;;;;;;3.60;2.88;;;;;;;15.33;100.00;100371.84;5087739;27;20063;-68
2023/07/27 06:24:44;;;;;;;3.53;2.70;;;;;;;15.37;100.00;100375.16;5088348;28;20123;-69
2023/07/27 06:27:09;;;;;;;3.83;2.97;;;;;;;15.42;100.00;100376.41;5086474;28;20058;-70
2023/07/27 06:29:34;;;;;;;3.33;2.83;;;;;;;15.47;100.00;100371.31;5088660;28;20043;-70
2023/07/27 06:32:00;;;;;;;4.22;2.90;;;;;;;15.52;100.00;100368.97;5086641;28;20051;-70
2023/07/27 06:34:26;;;;;;;2.92;2.53;;;;;;;15.58;100.00;100364.78;5088174;28;20044;-69
2023/07/27 06:36:51;;;;;;;3.00;2.53;;;;;;;15.63;100.00;100362.44;5085019;28;20408;-70
2023/07/27 06:39:17;;;;;;;3.40;2.65;;;;;;;15.68;100.00;100364.75;5088089;28;20456;-70
2023/07/27 06:41:42;;;;;;;3.63;3.30;;;;;;;15.73;100.00;100356.91;5087487;28;20024;-70
2023/07/27 06:44:08;;;;;;;3.80;2.47;;;;;;;15.74;100.00;100367.72;5087789;28;20130;-69
2023/07/27 06:46:34;;;;;;;4.45;2.78;;;;;;;15.78;100.00;100358.16;5088405;28;20039;-69
2023/07/27 06:49:00;;;;;;;3.20;2.60;;;;;;;15.80;100.00;100361.59;5086552;28;20035;-69
2023/07/27 06:51:25;;;;;;;3.55;2.50;;;;;;;15.82;100.00;100351.34;5086695;28;20405;-70
2023/07/27 06:53:51;;;;;;;4.15;2.75;;;;;;;15.85;100.00;100357.50;5087126;28;20068;-70
2023/07/27 06:56:19;;;;;;;2.83;2.58;;;;;;;15.87;100.00;100355.50;5087332;28;20393;-69
2023/07/27 06:58:44;;;;;;;3.03;2.38;;;;;;;15.89;100.00;100351.56;5087492;28;20083;-70
2023/07/27 07:01:10;;;;;;;2.50;2.20;;;;;;;15.93;100.00;100360.34;5087079;28;20040;-69
2023/07/27 07:03:36;;;;;;;4.57;2.53;;;;;;;15.97;100.00;100361.75;5087804;28;20120;-70
2023/07/27 07:06:01;;;;;;;4.00;2.30;;;;;;;16.01;100.00;100354.94;5097047;28;20048;-70
2023/07/27 07:08:26;;;;;;;3.50;2.75;;;;;;;16.04;100.00;100358.22;5086800;28;20498;-70
2023/07/27 07:10:52;;;;;;;3.50;2.55;;;;;;;16.10;100.00;100353.97;5091737;28;20027;-70
2023/07/27 07:13:17;;;;;;;3.08;2.60;;;;;;;16.16;100.00;100360.72;5107690;28;20036;-70
2023/07/27 07:15:45;;;;;;;2.65;2.25;;;;;;;16.21;100.00;100358.34;5106281;28;20098;-70
2023/07/27 07:18:10;;;;;;;3.50;2.65;;;;;;;16.23;100.00;100361.81;5107624;28;20122;-69
2023/07/27 07:20:35;;;;;;;4.05;2.50;;;;;;;16.26;100.00;100348.59;5102582;28;20524;-70
2023/07/27 07:23:01;;;;;;;3.58;2.67;;;;;;;16.29;100.00;100361.16;5086036;28;20047;-70
2023/07/27 07:25:26;;;;;;;3.60;2.97;;;;;;;16.32;100.00;100356.22;5088945;28;20032;-70
2023/07/27 07:27:51;;;;;;;3.05;2.75;;;;;;;16.36;100.00;100356.75;5106188;28;20019;-70
2023/07/27 07:30:17;;;;;;;5.22;2.95;;;;;;;16.40;100.00;100362.78;5107678;28;20046;-70
2023/07/27 07:32:43;;;;;;;4.60;3.78;;;;;;;16.40;100.00;100358.16;5099850;28;20483;-70
2023/07/27 07:35:08;;;;;;;4.00;3.15;;;;;;;16.46;100.00;100349.28;5085501;28;20122;-70
2023/07/27 07:37:34;;;;;;;5.65;3.58;;;;;;;16.54;100.00;100351.19;5086596;28;20846;-70
2023/07/27 07:40:00;;;;;;;5.28;3.95;;;;;;;16.62;100.00;100343.03;5086363;28;20447;-70
2023/07/27 07:42:25;;;;;;;4.45;3.80;;;;;;;16.68;100.00;100336.88;5086912;28;20087;-70
2023/07/27 07:44:51;;;;;;;4.03;3.42;;;;;;;16.76;100.00;100341.59;5086877;28;20058;-69
2023/07/27 07:47:16;;;;;;;4.75;3.55;;;;;;;16.84;100.00;100336.16;5086597;28;20089;-70
2023/07/27 07:49:42;;;;;;;5.88;3.97;;;;;;;16.92;100.00;100338.91;5087015;28;20387;-70
2023/07/27 07:52:07;;;;;;;4.65;4.10;;;;;;;16.92;100.00;100341.66;5085777;28;20040;-68
2023/07/27 07:54:33;;;;;;;5.10;3.85;;;;;;;16.90;100.00;100337.38;5087612;28;20028;-70
2023/07/27 07:56:58;;;;;;;6.35;4.10;;;;;;;16.90;100.00;100335.47;5086581;28;20036;-70
2023/07/27 07:59:24;;;;;;;4.45;4.05;;;;;;;16.90;100.00;100337.38;5086894;28;20024;-70
2023/07/27 08:01:49;;;;;;;4.30;3.90;;;;;;;16.94;100.00;100327.78;5086651;28;20032;-69
2023/07/27 08:04:15;;;;;;;4.65;4.05;;;;;;;17.00;100.00;100327.97;5087083;28;20089;-70
2023/07/27 08:06:40;;;;;;;4.05;3.65;;;;;;;17.09;100.00;100331.59;5085468;28;20066;-69
2023/07/27 08:09:06;;;;;;;4.93;4.00;;;;;;;17.12;100.00;100334.03;5097738;28;20039;-69
2023/07/27 08:11:32;;;;;;;4.07;3.40;;;;;;;17.12;100.00;100336.78;5106847;28;20089;-70
2023/07/27 08:14:01;;;;;;;5.72;2.88;;;;;;;17.12;100.00;100339.53;5107279;28;20126;-70
2023/07/27 08:16:27;;;;;;;3.90;2.58;;;;;;;17.10;100.00;100330.56;5088924;28;20043;-70
2023/07/27 08:18:52;;;;;;;3.08;2.35;;;;;;;17.14;100.00;100331.97;5086846;28;20028;-70
2023/07/27 08:21:17;;;;;;;2.75;2.00;;;;;;;17.19;100.00;100329.56;5085620;28;20039;-70
2023/07/27 08:23:43;;;;;;;4.15;2.25;;;;;;;17.26;100.00;100319.66;5088484;28;20115;-70
2023/07/27 08:26:09;;;;;;;2.10;1.90;;;;;;;17.30;100.00;100322.94;5090221;28;20020;-70
2023/07/27 08:28:34;;;;;;;1.88;1.77;;;;;;;17.43;100.00;100328.78;5089625;28;20123;-69
2023/07/27 08:31:04;;;;;;;3.65;2.00;;;;;;;17.43;100.00;100325.16;5107184;28;20054;-70
2023/07/27 08:33:31;;;;;;;2.40;1.50;;;;;;;17.49;100.00;100319.88;5110959;28;20442;-70
2023/07/27 08:35:57;;;;;;;1.83;1.73;;;;;;;17.56;100.00;100322.78;5102206;28;20341;-70
2023/07/27 08:38:23;;;;;;;2.08;1.88;;;;;;;17.63;100.00;100326.59;5089852;28;20475;-70
2023/07/27 08:41:07;;;;;;;2.50;2.15;;;;;;;17.71;100.00;100321.09;5089495;28;20036;-69
2023/07/27 08:43:33;;;;;;;2.75;2.42;;;;;;;17.78;100.00;100318.56;5090573;28;20036;-70
2023/07/27 08:45:58;;;;;;;3.08;2.28;;;;;;;17.89;100.00;100311.84;5089862;28;20066;-70
2023/07/27 08:48:24;;;;;;;4.50;2.58;;;;;;;17.95;100.00;100319.41;5090151;28;20489;-69
2023/07/27 08:50:51;;;;;;;4.47;2.67;;;;;;;17.99;100.00;100315.28;5089788;28;20032;-70
2023/07/27 08:53:17;;;;;;;4.43;2.33;;;;;;;18.00;100.00;100317.91;5089664;28;20040;-70
2023/07/27 08:55:42;;;;;;;4.75;2.10;;;;;;;18.01;100.00;100319.59;5089633;28;20536;-69
2023/07/27 08:58:09;;;;;;;4.25;2.45;;;;;;;18.08;100.00;100311.50;5104512;28;20076;-70
2023/07/27 09:00:34;;;;;;;2.65;2.28;;;;;;;18.17;100.00;100309.63;5110713;28;20046;-70
2023/07/27 09:03:00;;;;;;;5.32;1.60;;;;;;;18.27;100.00;100319.41;5092083;28;20036;-69
2023/07/27 09:05:42;;;;;;;2.42;2.00;;;;;;;18.42;100.00;100318.69;5089738;28;20036;-70
2023/07/27 09:08:10;;;;;;;2.88;1.88;;;;;;;18.49;100.00;100322.47;5089124;28;20047;-70
2023/07/27 09:10:37;;;;;;;2.22;1.77;;;;;;;18.46;100.00;100323.66;5089892;28;20465;-70
2023/07/27 09:13:03;;;;;;;2.85;1.85;;;;;;;18.36;100.00;100312.00;5110492;28;20106;-70
2023/07/27 09:15:29;;;;;;;2.78;2.40;;;;;;;18.25;100.00;100312.38;5110162;28;20386;-70
2023/07/27 09:17:58;;;;;;;2.50;2.10;;;;;;;18.22;100.00;100321.81;5109532;28;20035;-70
2023/07/27 09:20:33;;;;;;;2.42;2.20;;;;;;;18.23;100.00;100308.91;5097225;28;20028;-70
2023/07/27 09:22:59;;;;;;;3.72;2.78;;;;;;;18.21;100.00;100320.09;5088416;28;20036;-70
2023/07/27 09:25:24;;;;;;;2.95;2.65;;;;;;;18.19;100.00;100316.69;5093970;28;20042;-69
2023/07/27 09:27:54;;;;;;;3.55;2.70;;;;;;;18.21;100.00;100309.09;5110291;28;20047;-70
2023/07/27 09:30:21;;;;;;;3.35;2.90;;;;;;;18.35;100.00;100311.13;5109534;27;20048;-70
2023/07/27 09:32:48;;;;;;;3.25;2.72;;;;;;;18.51;100.00;100312.13;5108527;28;20043;-69
2023/07/27 09:35:14;;;;;;;3.47;3.17;;;;;;;18.73;100.00;100316.94;5107907;28;20039;-69
2023/07/27 09:37:47;;;;;;;2.85;2.58;;;;;;;18.86;100.00;100308.09;5087940;28;20040;-69
2023/07/27 09:40:23;;;;;;;3.90;2.75;;;;;;;18.92;100.00;100314.81;5088608;28;20031;-69
2023/07/27 09:42:48;;;;;;;4.60;2.67;;;;;;;18.92;100.00;100301.00;5088849;28;20036;-70
2023/07/27 09:45:14;;;;;;;3.55;1.98;;;;;;;18.84;100.00;100308.28;5089035;28;20054;-70
2023/07/27 09:47:40;;;;;;;3.95;1.70;;;;;;;18.76;100.00;100308.31;5088685;28;20101;-69
2023/07/27 09:50:10;;;;;;;2.40;2.13;;;;;;;18.70;100.00;100314.56;5089276;28;20264;-69
2023/07/27 09:52:37;;;;;;;1.77;1.65;;;;;;;18.69;100.00;100310.06;5088442;28;20039;-69
2023/07/27 09:55:03;;;;;;;1.80;1.42;;;;;;;18.73;100.00;100318.84;5087113;28;20469;-70
2023/07/27 09:57:29;;;;;;;1.75;1.38;;;;;;;18.74;100.00;100313.13;5088617;28;20067;-70
2023/07/27 09:59:55;;;;;;;2.85;1.52;;;;;;;18.69;100.00;100309.19;5088400;28;20043;-70
2023/07/27 10:02:22;;;;;;;1.92;1.55;;;;;;;18.63;100.00;100313.50;5088149;28;20085;-69
2023/07/27 10:04:51;;;;;;;3.05;1.60;;;;;;;18.54;100.00;100314.53;5103298;28;20042;-69
2023/07/27 10:07:21;;;;;;;2.75;1.67;;;;;;;18.56;100.00;100316.09;5087433;28;20089;-69
2023/07/27 10:09:47;;;;;;;4.30;1.33;;;;;;;18.62;100.00;100320.03;5086714;28;20047;-69
2023/07/27 10:12:27;;;;;;;1.50;1.40;;;;;;;18.81;100.00;100316.06;5088264;28;20020;-70
2023/07/27 10:15:24;;;;;;;1.65;1.33;;;;;;;18.92;100.00;100317.56;5088397;28;20052;-70
2023/07/27 10:17:54;;;;;;;3.55;1.30;;;;;;;19.03;100.00;100312.53;5087991;28;20035;-69
2023/07/27 10:20:21;;;;;;;1.77;1.50;;;;;;;19.09;100.00;100311.81;5086627;28;20040;-70
2023/07/27 10:23:11;;;;;;;1.35;1.23;;;;;;;19.13;100.00;100297.66;5087156;28;20489;-69
2023/07/27 10:26:00;;;;;;;2.53;1.30;;;;;;;19.21;100.00;100312.28;5088048;28;20164;-69
2023/07/27 10:28:29;;;;;;;1.75;1.45;;;;;;;19.16;100.00;100311.94;5088102;28;20048;-70
2023/07/27 10:31:13;;;;;;;3.05;1.70;;;;;;;19.10;100.00;100316.25;5094249;28;20092;-69
2023/07/27 10:33:38;;;;;;;1.60;1.50;;;;;;;18.95;100.00;100315.31;5108484;28;20073;-70
2023/07/27 10:36:04;;;;;;;1.40;1.30;;;;;;;18.85;100.00;100310.00;5100297;28;20058;-70
2023/07/27 10:38:33;;;;;;;1.63;1.52;;;;;;;18.81;100.00;100305.88;5087659;28;20378;-69
2023/07/27 10:41:14;;;;;;;2.33;1.60;;;;;;;18.83;100.00;100316.72;5087457;28;20086;-70
2023/07/27 10:44:08;;;;;;;1.58;1.48;;;;;;;18.89;100.00;100313.28;5092545;28;20062;-70
2023/07/27 10:46:37;;;;;;;2.75;1.80;;;;;;;18.84;100.00;100322.06;5108089;28;20484;-70
2023/07/27 10:49:10;;;;;;;2.00;1.80;;;;;;;18.82;100.00;100313.09;5108868;28;20047;-70
2023/07/27 10:51:36;;;;;;;2.13;1.90;;;;;;;18.83;100.00;100320.34;5095437;28;20035;-70
2023/07/27 10:54:01;;;;;;;2.70;2.35;;;;;;;18.79;100.00;100310.72;5087675;28;20054;-70
2023/07/27 10:56:27;;;;;;;2.35;2.15;;;;;;;18.79;100.00;100319.00;5087101;28;20054;-70
2023/07/27 10:58:59;;;;;;;1.95;1.63;;;;;;;18.76;100.00;100308.31;5086339;28;20096;-70
2023/07/27 11:01:25;;;;;;;2.25;1.80;;;;;;;18.78;100.00;100316.41;5087264;28;20044;-69
2023/07/27 11:03:50;;;;;;;2.10;1.80;;;;;;;18.78;100.00;100321.91;5087317;28;20080;-70
2023/07/27 11:06:17;;;;;;;2.22;1.80;;;;;;;18.75;100.00;100317.63;5086617;28;20036;-70
2023/07/27 11:08:43;;;;;;;5.22;2.13;;;;;;;18.77;100.00;100322.94;5087155;28;20036;-70
2023/07/27 11:11:17;;;;;;;1.85;1.73;;;;;;;18.78;100.00;100311.75;5086800;28;20097;-70
2023/07/27 11:13:42;;;;;;;3.13;2.00;;;;;;;18.81;100.00;100314.16;5087581;28;20039;-70
2023/07/27 11:16:08;;;;;;;3.55;1.90;;;;;;;18.87;100.00;100307.06;5087052;28;20043;-69